Time;durP1;ratioP1;P1;durP2;ratioP2;P2;SDS_P1;SDS_P2;PMS_P1;PMS_P2;Temp;Humidity;BMP_temperature;BMP_pressure;BME280_temperature;BME280_humidity;BME280_pressure;Samples;Min_cycle;Max_cycle;Signal;HPM_P1;HPM_P2
2022/10/05 00:02:27;;;;;;;6.20;2.63;;;;;;;11.88;91.58;100442.13;5071637;28;20056;-92
2022/10/05 00:04:55;;;;;;;5.80;2.42;;;;;;;11.93;91.36;100441.13;5039238;28;20147;-91
2022/10/05 00:07:22;;;;;;;6.32;2.70;;;;;;;11.93;91.47;100439.22;5055009;28;20032;-93
2022/10/05 00:09:56;;;;;;;8.02;2.80;;;;;;;11.93;91.84;100430.22;5038415;28;20033;-91
2022/10/05 00:12:23;;;;;;;6.57;2.88;;;;;;;12.01;91.39;100434.78;5037808;28;20036;-90
2022/10/05 00:14:52;;;;;;;6.60;2.45;;;;;;;11.99;91.68;100431.59;5056189;28;20036;-91
2022/10/05 00:17:26;;;;;;;6.45;2.58;;;;;;;11.93;91.82;100433.75;5053087;28;20094;-90
2022/10/05 00:19:55;;;;;;;9.13;2.85;;;;;;;11.94;91.84;100429.88;5054308;28;20029;-91
2022/10/05 00:22:27;;;;;;;7.35;3.25;;;;;;;11.94;92.41;100418.16;5056980;28;20036;-92
2022/10/05 00:24:56;;;;;;;7.82;2.65;;;;;;;11.95;92.12;100423.28;5055260;28;20029;-92
2022/10/05 00:27:29;;;;;;;6.55;2.60;;;;;;;11.96;92.34;100421.34;5056334;28;20028;-92
2022/10/05 00:29:58;;;;;;;8.35;2.80;;;;;;;12.08;91.86;100418.66;5038181;28;20029;-91
2022/10/05 00:32:24;;;;;;;5.63;2.60;;;;;;;12.02;91.84;100417.28;5057277;28;20032;-91
2022/10/05 00:34:57;;;;;;;6.10;2.85;;;;;;;12.03;92.00;100418.88;5038360;28;20029;-91
2022/10/05 00:37:22;;;;;;;6.70;3.05;;;;;;;12.04;92.03;100418.53;5039972;28;20079;-92
2022/10/05 00:39:48;;;;;;;6.75;2.85;;;;;;;12.12;91.86;100418.78;5039167;28;20099;-91
2022/10/05 00:42:28;;;;;;;7.35;2.70;;;;;;;12.16;91.25;100425.16;5039157;28;20052;-90
2022/10/05 00:45:05;;;;;;;5.75;2.78;;;;;;;12.07;91.82;100422.50;5038149;28;20025;-93
2022/10/05 00:47:34;;;;;;;6.45;2.92;;;;;;;12.07;91.65;100421.72;5037749;28;20048;-90
2022/10/05 00:50:52;;;;;;;6.38;3.47;;;;;;;12.05;92.06;100431.03;5066854;28;20041;-89
2022/10/05 00:53:41;;;;;;;6.50;3.17;;;;;;;12.07;92.00;100438.88;5061162;28;20048;-93
2022/10/05 00:56:21;;;;;;;6.18;2.75;;;;;;;12.05;92.23;100430.25;5055149;28;20025;-91
2022/10/05 00:59:01;;;;;;;6.10;2.58;;;;;;;12.03;92.42;100419.66;5057518;28;20056;-91
2022/10/05 01:01:53;;;;;;;10.57;3.50;;;;;;;12.01;92.35;100423.88;5039324;28;20036;-92
2022/10/05 01:04:44;;;;;;;6.97;2.88;;;;;;;12.01;92.36;100419.22;5076732;28;20043;-89
2022/10/05 01:07:38;;;;;;;8.73;3.50;;;;;;;12.01;92.70;100421.13;5087358;28;20042;-92
2022/10/05 01:10:25;;;;;;;7.00;3.30;;;;;;;12.01;92.74;100412.94;5077554;28;20028;-90
2022/10/05 01:13:04;;;;;;;7.32;3.28;;;;;;;12.03;92.49;100416.13;5074147;28;20040;-93
2022/10/05 01:15:47;;;;;;;7.53;3.20;;;;;;;12.02;92.90;100404.44;5075312;28;20119;-91
2022/10/05 01:18:30;;;;;;;7.82;3.40;;;;;;;12.03;92.69;100410.69;5078272;28;20036;-95
2022/10/05 01:21:15;;;;;;;8.32;3.40;;;;;;;12.02;92.70;100406.34;5074998;28;20028;-91
2022/10/05 01:24:05;;;;;;;7.88;3.45;;;;;;;12.00;93.07;100405.91;5077021;28;20059;-92
2022/10/05 01:26:52;;;;;;;7.43;3.17;;;;;;;12.00;93.00;100405.91;5076014;28;20028;-93
2022/10/05 01:29:47;;;;;;;6.00;2.85;;;;;;;11.99;92.99;100396.91;5075049;28;20474;-90
2022/10/05 01:32:20;;;;;;;8.27;3.05;;;;;;;11.99;93.19;100396.91;5074563;28;20114;-91
2022/10/05 01:35:21;;;;;;;11.10;3.60;;;;;;;12.01;93.19;100396.56;5072831;28;20082;-90
2022/10/05 01:38:18;;;;;;;7.93;3.38;;;;;;;11.99;93.36;100396.91;5075041;28;20119;-92
2022/10/05 01:40:49;;;;;;;8.43;3.53;;;;;;;11.99;93.42;100387.94;5076163;28;20043;-90
2022/10/05 01:43:38;;;;;;;7.32;3.33;;;;;;;11.98;93.37;100380.88;5073577;28;20119;-91
2022/10/05 01:46:27;;;;;;;8.45;3.28;;;;;;;12.09;93.21;100383.97;5075113;28;20036;-94
2022/10/05 01:49:06;;;;;;;10.60;3.47;;;;;;;12.07;93.11;100397.94;5073827;28;20025;-91
2022/10/05 01:51:49;;;;;;;7.50;2.90;;;;;;;12.00;93.38;100384.06;5075774;28;20036;-90
2022/10/05 01:54:50;;;;;;;9.05;3.22;;;;;;;12.03;93.18;100377.94;5075877;28;20477;-91
2022/10/05 01:57:21;;;;;;;6.93;3.65;;;;;;;12.00;93.43;100371.22;5007571;28;20041;-94
2022/10/05 02:00:06;;;;;;;6.07;3.28;;;;;;;12.01;93.25;100356.44;5075017;28;20097;-92
2022/10/05 02:02:37;;;;;;;8.45;3.78;;;;;;;12.00;93.38;100352.13;5075118;28;20041;-92
2022/10/05 02:05:15;;;;;;;9.52;3.45;;;;;;;12.00;93.42;100362.22;5074949;28;20502;-90
2022/10/05 02:07:50;;;;;;;6.35;2.88;;;;;;;12.00;93.61;100356.78;5075010;28;20046;-92
2022/10/05 02:10:31;;;;;;;7.72;3.00;;;;;;;12.01;93.54;100359.16;5075552;28;20035;-89
2022/10/05 02:13:24;;;;;;;7.07;3.13;;;;;;;11.99;93.52;100361.44;5078517;28;20548;-92
2022/10/05 02:16:06;;;;;;;5.63;2.78;;;;;;;11.96;93.67;100353.13;5075978;28;20044;-93
2022/10/05 02:18:40;;;;;;;7.38;3.03;;;;;;;11.96;93.81;100355.88;5078898;28;20476;-92
2022/10/05 02:21:07;;;;;;;5.93;3.05;;;;;;;11.97;93.54;100349.28;5076717;28;20408;-90
2022/10/05 02:23:36;;;;;;;6.80;2.75;;;;;;;12.00;93.53;100362.22;5077760;28;20025;-92
2022/10/05 02:26:10;;;;;;;7.43;3.47;;;;;;;11.97;93.39;100355.53;5078517;28;20020;-93
2022/10/05 02:28:54;;;;;;;6.30;3.00;;;;;;;11.97;93.53;100352.00;5077379;28;20039;-90
2022/10/05 02:31:39;;;;;;;8.13;3.13;;;;;;;11.96;93.68;100355.88;5076616;28;20032;-95
2022/10/05 02:34:25;;;;;;;5.88;2.70;;;;;;;11.96;93.76;100355.88;5076808;28;20054;-91
2022/10/05 02:37:23;;;;;;;7.78;3.40;;;;;;;11.97;93.77;100354.72;5075720;28;20047;-91
2022/10/05 02:40:23;;;;;;;6.30;2.60;;;;;;;11.95;93.91;100352.34;5060503;28;20095;-92
2022/10/05 02:43:11;;;;;;;8.02;3.47;;;;;;;11.92;93.99;100350.25;5076213;28;20375;-91
2022/10/05 02:45:46;;;;;;;6.95;2.92;;;;;;;11.92;94.15;100344.00;5064446;28;20040;-91
2022/10/05 02:48:47;;;;;;;7.32;3.03;;;;;;;11.91;94.18;100339.69;5076688;28;20112;-92
2022/10/05 02:51:21;;;;;;;8.02;3.45;;;;;;;11.95;93.99;100332.44;5077073;28;20612;-92
2022/10/05 02:54:15;;;;;;;7.72;2.70;;;;;;;11.92;94.49;100328.44;5077269;28;20037;-93
2022/10/05 02:56:57;;;;;;;7.63;3.10;;;;;;;11.89;94.51;100325.59;5075047;28;20063;-93
2022/10/05 02:59:45;;;;;;;6.55;3.05;;;;;;;12.03;93.92;100326.06;5074813;28;20036;-94
2022/10/05 03:02:18;;;;;;;7.22;3.20;;;;;;;12.00;94.07;100321.31;5076055;28;20048;-93
2022/10/05 03:05:05;;;;;;;6.25;2.88;;;;;;;11.94;94.53;100326.19;5076065;28;20101;-90
2022/10/05 03:07:56;;;;;;;9.00;3.25;;;;;;;11.98;94.45;100318.91;5077477;28;20051;-93
2022/10/05 03:10:56;;;;;;;9.00;2.88;;;;;;;12.01;94.56;100328.34;5075795;28;20040;-89
2022/10/05 03:13:50;;;;;;;8.48;3.53;;;;;;;11.98;94.75;100324.38;5075472;28;20024;-90
2022/10/05 03:16:37;;;;;;;6.88;3.50;;;;;;;12.01;94.57;100322.88;5052847;28;20044;-91
2022/10/05 03:19:26;;;;;;;5.97;2.73;;;;;;;11.99;94.67;100314.25;5075041;28;20037;-91
2022/10/05 03:21:55;;;;;;;8.70;3.38;;;;;;;12.01;94.45;100315.50;5075612;28;20279;-92
2022/10/05 03:24:45;;;;;;;7.40;2.80;;;;;;;12.00;94.32;100311.19;5075128;28;20033;-90
2022/10/05 03:27:34;;;;;;;6.90;2.72;;;;;;;12.00;94.65;100304.94;5076494;28;20033;-92
2022/10/05 03:30:11;;;;;;;6.95;3.05;;;;;;;12.01;94.54;100306.53;5074616;28;20144;-91
2022/10/05 03:32:53;;;;;;;5.90;2.80;;;;;;;12.01;94.34;100301.84;5074047;28;20033;-92
2022/10/05 03:35:40;;;;;;;6.18;3.00;;;;;;;12.00;94.41;100305.72;5075589;28;20032;-89
2022/10/05 03:38:17;;;;;;;11.02;3.33;;;;;;;11.94;94.62;100289.91;5074335;28;20040;-90
2022/10/05 03:41:13;;;;;;;7.00;3.53;;;;;;;11.90;94.80;100292.50;5076845;28;20399;-93
2022/10/05 03:44:11;;;;;;;6.60;2.97;;;;;;;11.90;94.96;100294.44;5074979;28;20090;-91
2022/10/05 03:46:45;;;;;;;6.25;2.92;;;;;;;11.81;95.25;100289.09;5075534;28;20035;-92
2022/10/05 03:49:48;;;;;;;5.72;3.17;;;;;;;11.81;95.13;100288.31;5075997;28;20036;-90
2022/10/05 03:52:18;;;;;;;7.40;3.17;;;;;;;11.75;95.39;100291.19;5075156;28;20119;-91
2022/10/05 03:54:54;;;;;;;7.40;3.50;;;;;;;11.77;95.29;100287.38;5075409;28;20467;-91
2022/10/05 03:57:24;;;;;;;7.50;3.38;;;;;;;11.79;95.04;100279.66;5075829;28;20029;-88
2022/10/05 04:00:24;;;;;;;9.05;3.50;;;;;;;11.74;95.41;100278.69;5074659;28;20062;-92
2022/10/05 04:03:14;;;;;;;8.98;4.20;;;;;;;11.80;94.93;100275.81;5074238;28;20059;-90
2022/10/05 04:05:58;;;;;;;6.38;3.08;;;;;;;11.80;94.78;100271.13;5073745;28;20134;-91
2022/10/05 04:08:59;;;;;;;6.60;2.88;;;;;;;11.77;94.79;100266.34;5076361;28;20029;-91
2022/10/05 04:11:53;;;;;;;5.88;2.80;;;;;;;11.78;94.61;100278.03;5074521;28;20028;-89
2022/10/05 04:14:26;;;;;;;6.18;3.15;;;;;;;11.78;94.77;100272.59;5078779;28;20451;-91
2022/10/05 04:17:03;;;;;;;6.60;2.85;;;;;;;11.76;94.73;100264.75;5096094;28;20114;-93
2022/10/05 04:19:44;;;;;;;8.20;3.28;;;;;;;11.88;94.41;100270.22;5080198;28;20032;-93
2022/10/05 04:22:30;;;;;;;5.72;2.63;;;;;;;11.78;94.41;100262.47;5078496;28;20457;-89
2022/10/05 04:25:15;;;;;;;7.97;3.50;;;;;;;11.72;94.94;100263.81;5078010;28;20035;-91
2022/10/05 04:27:59;;;;;;;7.75;3.60;;;;;;;11.70;94.96;100266.06;5079095;28;20066;-92
2022/10/05 04:30:28;;;;;;;6.75;3.38;;;;;;;11.68;95.12;100274.59;5077851;28;20463;-92
2022/10/05 04:32:58;;;;;;;7.63;3.47;;;;;;;11.67;95.09;100267.56;5077217;28;20036;-90
2022/10/05 04:35:41;;;;;;;7.85;2.97;;;;;;;11.72;95.13;100264.59;5078399;28;20107;-89
2022/10/05 04:38:42;;;;;;;6.32;2.85;;;;;;;11.71;95.38;100262.22;5077250;28;20411;-91
2022/10/05 04:41:33;;;;;;;8.68;3.33;;;;;;;11.73;95.01;100262.66;5077043;28;20062;-89
2022/10/05 04:44:20;;;;;;;9.30;3.15;;;;;;;11.74;95.16;100273.25;5095033;28;20028;-91
2022/10/05 04:47:00;;;;;;;7.70;3.38;;;;;;;11.77;94.98;100271.78;5077611;28;20028;-90
2022/10/05 04:49:34;;;;;;;6.93;3.00;;;;;;;11.79;95.11;100271.47;5077764;28;20031;-88
2022/10/05 04:52:15;;;;;;;7.65;3.33;;;;;;;11.79;94.88;100266.81;5077732;28;20028;-92
2022/10/05 04:54:55;;;;;;;8.27;3.67;;;;;;;11.79;94.89;100272.28;5095726;28;20111;-89
2022/10/05 04:57:48;;;;;;;7.95;3.63;;;;;;;11.87;94.82;100276.81;5097952;28;20032;-91
2022/10/05 05:00:36;;;;;;;6.85;3.30;;;;;;;11.86;94.91;100268.97;5085922;28;20039;-90
2022/10/05 05:03:33;;;;;;;9.20;3.45;;;;;;;11.91;94.39;100274.19;5077090;28;20090;-90
2022/10/05 05:06:16;;;;;;;10.73;3.20;;;;;;;11.86;94.97;100274.44;5074045;28;20446;-89
2022/10/05 05:09:03;;;;;;;6.30;3.17;;;;;;;11.87;94.55;100267.84;5076193;28;20693;-91
2022/10/05 05:11:47;;;;;;;;;;;;;;;11.84;94.86;100272.03;5075064;28;20117;-89
2022/10/05 05:14:13;;;;;;;8.45;3.15;;;;;;;11.86;94.78;100274.44;5075715;28;20279;-91
2022/10/05 05:16:51;;;;;;;9.65;3.60;;;;;;;11.89;94.71;100280.00;5076387;28;20040;-92
2022/10/05 05:19:29;;;;;;;7.40;3.60;;;;;;;11.88;94.55;100274.88;5075896;28;20529;-90
2022/10/05 05:22:01;;;;;;;6.70;3.05;;;;;;;11.89;94.64;100271.03;5075479;28;20035;-92
2022/10/05 05:24:42;;;;;;;8.63;3.25;;;;;;;11.93;94.21;100275.47;5077827;28;20033;-89
2022/10/05 05:27:38;;;;;;;10.20;3.70;;;;;;;11.95;93.97;100269.69;5077119;28;20036;-91
2022/10/05 05:30:19;;;;;;;5.95;3.25;;;;;;;11.99;93.36;100276.03;5075935;28;20032;-90
2022/10/05 05:33:03;;;;;;;6.63;3.03;;;;;;;12.05;93.11;100269.22;5074785;28;20071;-90
2022/10/05 05:35:38;;;;;;;6.68;2.75;;;;;;;12.17;92.42;100271.16;5076265;28;20029;-92
2022/10/05 05:38:15;;;;;;;7.55;3.25;;;;;;;12.15;92.25;100268.78;5074661;28;20028;-91
2022/10/05 05:41:01;;;;;;;5.55;2.65;;;;;;;12.17;92.06;100269.22;5074345;28;20459;-90
2022/10/05 05:43:38;;;;;;;6.70;3.13;;;;;;;12.21;91.52;100275.59;5074190;28;20029;-91
2022/10/05 05:46:13;;;;;;;;;;;;;;;12.23;91.54;100267.06;5078302;28;20040;-91
2022/10/05 05:48:46;;;;;;;6.35;2.38;;;;;;;12.22;91.43;100265.47;5080145;28;19915;-90
2022/10/05 05:51:33;;;;;;;7.43;2.70;;;;;;;12.28;91.30;100264.91;5080139;28;20048;-91
2022/10/05 05:54:21;;;;;;;7.00;3.22;;;;;;;12.34;90.58;100268.19;5080134;28;20032;-90
2022/10/05 05:57:10;;;;;;;7.05;3.17;;;;;;;12.34;90.62;100269.00;5076979;28;20024;-89
2022/10/05 05:59:48;;;;;;;6.22;3.05;;;;;;;12.40;90.36;100269.53;5076579;28;20040;-90
2022/10/05 06:02:20;;;;;;;6.72;2.90;;;;;;;12.39;90.66;100265.22;5080992;28;20059;-89
2022/10/05 06:04:55;;;;;;;6.22;3.03;;;;;;;12.41;90.59;100257.47;5080639;28;20126;-90
2022/10/05 06:07:30;;;;;;;7.88;3.03;;;;;;;12.43;90.48;100262.59;5101085;28;20163;-93
2022/10/05 06:10:02;;;;;;;6.05;2.60;;;;;;;12.46;90.33;100259.19;5080566;28;20032;-91
2022/10/05 06:12:33;;;;;;;8.25;3.30;;;;;;;12.55;89.70;100259.84;5081118;28;20039;-90
2022/10/05 06:15:05;;;;;;;6.13;2.60;;;;;;;12.50;89.85;100266.34;5097489;28;20077;-89
2022/10/05 06:17:46;;;;;;;6.18;2.70;;;;;;;12.50;89.85;100265.56;5079478;28;20036;-89
2022/10/05 06:20:28;;;;;;;5.30;2.42;;;;;;;12.52;89.69;100264.06;5083431;28;20036;-90
2022/10/05 06:22:59;;;;;;;6.80;2.40;;;;;;;12.55;89.77;100270.78;5081434;28;20078;-89
2022/10/05 06:25:50;;;;;;;5.50;2.53;;;;;;;12.55;89.73;100273.50;5079196;28;20058;-91
2022/10/05 06:28:17;;;;;;;7.07;2.50;;;;;;;12.62;89.53;100271.00;5097639;28;20028;-90
2022/10/05 06:31:16;;;;;;;5.60;2.70;;;;;;;12.67;89.01;100281.69;5078686;28;20115;-88
2022/10/05 06:33:48;;;;;;;6.20;2.67;;;;;;;12.69;88.85;100271.22;5079563;28;20035;-91
2022/10/05 06:36:33;;;;;;;8.05;3.05;;;;;;;12.74;88.57;100279.16;5099189;28;20048;-90
2022/10/05 06:39:20;;;;;;;5.47;2.63;;;;;;;12.88;88.19;100282.31;5098561;28;20027;-91
2022/10/05 06:42:10;;;;;;;5.63;2.90;;;;;;;12.79;88.26;100280.88;5097696;28;20035;-91
2022/10/05 06:44:53;;;;;;;8.68;2.30;;;;;;;12.79;88.53;100272.69;5061852;28;20043;-88
2022/10/05 06:47:26;;;;;;;6.50;2.50;;;;;;;12.81;88.50;100265.72;5097265;28;20020;-86
2022/10/05 06:50:13;;;;;;;5.97;2.75;;;;;;;12.85;88.37;100276.75;5099069;28;20134;-89
2022/10/05 06:52:38;;;;;;;6.35;2.75;;;;;;;12.89;87.99;100278.44;5097328;28;20055;-89
2022/10/05 06:55:27;;;;;;;6.32;2.75;;;;;;;12.95;87.87;100270.81;5096932;28;20033;-88
2022/10/05 06:57:58;;;;;;;6.25;2.30;;;;;;;12.97;88.05;100275.94;5078457;28;20356;-88
2022/10/05 07:00:34;;;;;;;7.47;2.85;;;;;;;13.03;87.30;100275.34;5097327;28;20044;-89
2022/10/05 07:03:10;;;;;;;5.50;2.53;;;;;;;13.03;87.61;100272.59;5095990;28;20399;-89
2022/10/05 07:05:35;;;;;;;6.38;2.60;;;;;;;13.05;87.17;100273.03;5095754;28;20028;-87
2022/10/05 07:08:26;;;;;;;5.47;2.33;;;;;;;13.08;87.09;100268.81;5096019;28;20119;-90
2022/10/05 07:10:57;;;;;;;6.53;2.40;;;;;;;13.10;87.13;100277.47;5096600;28;20020;-92
2022/10/05 07:13:50;;;;;;;6.70;2.70;;;;;;;13.14;86.69;100275.66;5096246;28;20111;-89
2022/10/05 07:16:39;;;;;;;6.43;2.65;;;;;;;13.16;86.66;100276.09;5078066;28;20032;-87
2022/10/05 07:19:31;;;;;;;5.28;2.33;;;;;;;13.20;86.49;100282.47;5095773;28;20020;-88
2022/10/05 07:22:15;;;;;;;5.20;2.33;;;;;;;13.25;86.22;100279.50;5095888;28;20532;-88
2022/10/05 07:25:11;;;;;;;6.45;2.28;;;;;;;13.27;86.26;100277.22;5077813;28;20032;-88
2022/10/05 07:27:47;;;;;;;5.57;2.13;;;;;;;13.27;86.00;100279.13;5096189;28;20024;-87
2022/10/05 07:30:14;;;;;;;5.30;2.40;;;;;;;13.29;85.90;100285.06;5095951;28;20135;-88
2022/10/05 07:33:08;;;;;;;6.88;2.60;;;;;;;13.31;85.80;100288.25;5097010;28;20028;-88
2022/10/05 07:38:51;;;;;;;5.53;2.38;;;;;;;13.28;86.25;100289.75;5097855;28;20062;-91
2022/10/05 07:41:23;;;;;;;5.68;2.65;;;;;;;13.40;85.72;100281.47;5078661;28;20127;-89
2022/10/05 07:43:57;;;;;;;4.47;2.15;;;;;;;13.31;86.13;100289.06;5096208;28;20028;-89
2022/10/05 07:46:22;;;;;;;6.72;2.60;;;;;;;13.29;86.02;100283.13;5098359;28;20066;-88
2022/10/05 07:48:48;;;;;;;4.33;1.90;;;;;;;13.31;85.86;100272.66;5097675;28;20036;-89
2022/10/05 07:51:16;;;;;;;;;;;;;;;13.34;85.67;100291.09;5098111;28;20028;-87
2022/10/05 07:54:10;;;;;;;5.57;2.53;;;;;;;13.36;85.76;100286.06;5079077;28;19965;-88
2022/10/05 07:56:40;;;;;;;4.90;2.50;;;;;;;13.41;85.99;100291.25;5037086;28;20043;-87
2022/10/05 07:59:15;;;;;;;5.55;2.25;;;;;;;13.41;85.60;100287.72;5095127;28;20032;-89
2022/10/05 08:01:47;;;;;;;6.80;1.92;;;;;;;13.44;85.42;100287.06;5096230;28;20028;-86
2022/10/05 08:04:18;;;;;;;4.57;2.00;;;;;;;13.47;85.60;100289.88;5077888;28;20048;-89
2022/10/05 08:06:52;;;;;;;4.95;2.25;;;;;;;13.49;85.30;100293.06;5096098;28;20080;-87
2022/10/05 08:09:33;;;;;;;7.22;2.13;;;;;;;13.50;85.26;100291.13;5095322;28;20032;-87
2022/10/05 08:12:19;;;;;;;6.75;2.13;;;;;;;13.50;85.12;100296.59;5078393;28;20035;-88
2022/10/05 08:14:54;;;;;;;6.65;2.70;;;;;;;13.51;85.40;100288.03;5077115;28;20408;-88
2022/10/05 08:17:45;;;;;;;5.25;2.10;;;;;;;13.53;85.17;100298.63;5096795;28;20036;-88
2022/10/05 08:20:48;;;;;;;6.45;2.08;;;;;;;13.54;85.03;100287.34;5079091;28;20028;-88
2022/10/05 08:23:24;;;;;;;3.65;1.77;;;;;;;13.60;85.21;100290.59;5078132;28;20036;-89
2022/10/05 08:26:23;;;;;;;4.60;2.17;;;;;;;13.62;84.66;100288.34;5096199;28;20028;-87
2022/10/05 08:29:02;;;;;;;4.40;2.03;;;;;;;13.67;84.55;100285.31;5096620;28;20780;-88
2022/10/05 08:31:30;;;;;;;4.35;1.73;;;;;;;13.67;84.58;100287.28;5081689;28;20058;-89
2022/10/05 08:34:24;;;;;;;6.13;2.40;;;;;;;13.71;84.39;100283.47;5096175;28;20036;-87
2022/10/05 08:37:05;;;;;;;4.65;2.17;;;;;;;13.74;84.61;100281.97;5078377;28;20062;-88
2022/10/05 08:39:38;;;;;;;5.63;1.88;;;;;;;13.79;84.01;100273.53;5078799;28;20035;-86
2022/10/05 08:42:34;;;;;;;5.80;2.20;;;;;;;13.77;84.32;100278.53;5077933;28;20393;-90
2022/10/05 08:45:15;;;;;;;4.82;2.13;;;;;;;13.78;84.24;100280.94;5077770;28;20036;-89
2022/10/05 08:47:58;;;;;;;4.35;2.00;;;;;;;13.85;84.40;100283.84;5077518;28;20042;-90
2022/10/05 08:50:31;;;;;;;8.75;2.80;;;;;;;13.81;83.76;100277.50;5095988;28;20375;-86
2022/10/05 08:53:19;;;;;;;6.32;1.85;;;;;;;13.92;83.72;100277.75;5094497;28;20039;-91
2022/10/05 08:56:01;;;;;;;3.60;1.77;;;;;;;13.88;83.93;100282.34;5095099;28;20027;-87
2022/10/05 08:58:41;;;;;;;4.95;1.95;;;;;;;13.95;83.75;100276.25;5095813;28;20024;-94
2022/10/05 09:01:24;;;;;;;4.32;2.13;;;;;;;13.89;83.89;100277.66;5094872;28;20032;-88
2022/10/05 09:04:12;;;;;;;4.95;2.20;;;;;;;13.93;83.37;100271.13;5093958;28;20499;-89
2022/10/05 09:07:15;;;;;;;5.55;2.13;;;;;;;13.95;84.00;100270.78;5094959;28;20077;-86
2022/10/05 09:09:59;;;;;;;4.57;1.90;;;;;;;14.00;83.40;100265.03;5079743;28;20032;-85
2022/10/05 09:13:01;;;;;;;5.22;2.60;;;;;;;14.03;83.25;100262.38;5096179;28;20077;-88
2022/10/05 09:15:42;;;;;;;4.43;1.90;;;;;;;14.03;83.20;100265.13;5077324;28;20054;-87
2022/10/05 09:18:23;;;;;;;4.65;1.83;;;;;;;14.02;83.24;100266.28;5096989;28;20028;-88
2022/10/05 09:20:53;;;;;;;5.63;1.80;;;;;;;14.17;82.68;100252.94;5099899;28;20048;-88
2022/10/05 09:23:36;;;;;;;3.97;2.08;;;;;;;14.18;82.78;100257.25;5100780;28;20035;-88
2022/10/05 09:26:42;;;;;;;5.32;2.00;;;;;;;14.25;82.43;100251.94;5083307;28;20115;-87
2022/10/05 09:29:39;;;;;;;5.10;2.00;;;;;;;14.23;82.08;100257.78;5082631;28;20032;-91
2022/10/05 09:32:23;;;;;;;;;;;;;;;14.32;81.97;100252.91;5087868;28;20040;-89
2022/10/05 09:35:07;;;;;;;4.00;1.80;;;;;;;14.40;81.63;100259.31;5100207;28;19915;-88
2022/10/05 09:37:45;;;;;;;4.82;1.88;;;;;;;14.39;81.67;100264.00;5082265;28;20024;-90
2022/10/05 09:40:22;;;;;;;4.13;2.08;;;;;;;14.48;81.49;100252.13;5100092;28;20036;-88
2022/10/05 09:42:50;;;;;;;5.22;2.13;;;;;;;14.48;81.82;100252.91;5100242;28;20028;-89
2022/10/05 09:45:48;;;;;;;14.63;2.55;;;;;;;14.50;81.77;100247.06;5082511;28;20028;-87
2022/10/05 09:48:16;;;;;;;5.70;2.30;;;;;;;14.57;80.96;100250.75;5051347;28;20044;-89
2022/10/05 09:51:37;;;;;;;6.28;2.33;;;;;;;14.67;81.10;100244.72;5082727;28;20062;-88
2022/10/05 09:54:05;;;;;;;5.10;2.53;;;;;;;14.82;80.04;100250.50;5000574;28;20072;-88
2022/10/05 09:56:56;;;;;;;4.50;2.20;;;;;;;14.77;80.63;100257.03;5000940;28;20037;-87
2022/10/05 09:59:41;;;;;;;5.68;2.08;;;;;;;14.81;80.22;100251.66;5062626;28;20174;-92
2022/10/05 10:02:20;;;;;;;4.82;1.83;;;;;;;14.80;80.61;100230.88;5081764;28;20032;-85
2022/10/05 10:05:08;;;;;;;7.40;2.17;;;;;;;14.81;80.38;100238.75;5099882;28;20028;-86
2022/10/05 10:08:03;;;;;;;6.82;2.15;;;;;;;14.93;80.39;100229.56;5080868;28;20467;-85
2022/10/05 10:11:01;;;;;;;3.72;2.05;;;;;;;14.82;80.41;100231.31;5081474;28;20063;-88
2022/10/05 10:13:50;;;;;;;;;;;;;;;14.82;80.76;100251.28;5064017;28;20044;-91
2022/10/05 10:17:00;;;;;;;4.88;2.00;;;;;;;14.81;80.72;100235.22;5081685;28;19976;-87
2022/10/05 10:19:51;;;;;;;6.07;1.92;;;;;;;14.82;80.76;100225.84;5083458;28;20024;-88
2022/10/05 10:23:06;;;;;;;4.63;2.03;;;;;;;14.88;80.52;100238.09;5080438;28;20050;-91
2022/10/05 10:25:56;;;;;;;4.63;2.10;;;;;;;14.96;80.52;100231.59;5053284;28;20040;-87
2022/10/05 10:28:33;;;;;;;4.72;2.10;;;;;;;15.05;79.87;100226.69;5097803;28;20028;-88
2022/10/05 10:31:29;;;;;;;4.60;1.90;;;;;;;15.08;79.95;100223.22;5098239;28;20036;-91
2022/10/05 10:34:29;;;;;;;5.10;1.95;;;;;;;15.18;79.54;100225.38;5097127;28;20028;-87
2022/10/05 10:37:23;;;;;;;6.28;2.22;;;;;;;15.33;78.95;100221.75;5080599;28;20032;-94
2022/10/05 10:40:07;;;;;;;5.78;2.25;;;;;;;15.43;78.98;100225.81;5097050;28;20028;-84
2022/10/05 10:42:57;;;;;;;6.25;1.90;;;;;;;15.52;78.58;100229.13;5098148;28;20020;-88
2022/10/05 10:45:41;;;;;;;3.83;1.42;;;;;;;15.51;78.62;100229.50;5061223;28;20040;-92
2022/10/05 10:48:22;;;;;;;4.93;2.15;;;;;;;15.60;78.31;100227.34;5099740;28;20107;-88
2022/10/05 10:50:52;;;;;;;5.30;1.80;;;;;;;15.59;78.85;100217.50;5100842;28;20024;-85
2022/10/05 10:53:45;;;;;;;5.47;1.90;;;;;;;15.66;78.66;100220.41;5081923;28;20131;-86
2022/10/05 10:56:40;;;;;;;4.03;1.50;;;;;;;15.67;78.58;100208.25;5083313;28;20115;-90
2022/10/05 10:59:24;;;;;;;5.07;1.80;;;;;;;15.69;77.55;100214.16;5081571;28;20047;-87
2022/10/05 11:01:57;;;;;;;4.93;2.10;;;;;;;15.69;77.42;100211.44;5080502;28;20063;-87
2022/10/05 11:04:39;;;;;;;4.63;2.45;;;;;;;15.66;77.48;100212.16;5081815;28;20032;-89
2022/10/05 11:07:31;;;;;;;3.70;1.50;;;;;;;15.66;77.78;100203.94;5082640;28;20105;-88
2022/10/05 11:10:09;;;;;;;3.95;1.60;;;;;;;15.71;77.92;100203.63;5100670;28;20039;-86
2022/10/05 11:12:58;;;;;;;4.22;1.60;;;;;;;15.83;77.21;100211.66;5100985;28;20042;-87
2022/10/05 11:15:42;;;;;;;5.50;2.22;;;;;;;15.93;76.64;100189.06;5101156;28;20028;-90
2022/10/05 11:18:51;;;;;;;4.13;1.70;;;;;;;16.21;76.09;100193.41;5080920;28;20032;-88
2022/10/05 11:21:36;;;;;;;4.03;1.50;;;;;;;16.34;75.71;100174.75;5101046;28;20077;-89
2022/10/05 11:24:37;;;;;;;3.53;1.80;;;;;;;16.36;75.15;100167.72;5079436;28;20028;-88
2022/10/05 11:27:49;;;;;;;4.22;2.10;;;;;;;16.53;74.76;100161.66;5098524;28;20036;-86
2022/10/05 11:30:34;;;;;;;3.65;1.67;;;;;;;16.71;74.36;100161.13;5080084;28;20024;-89
2022/10/05 11:33:18;;;;;;;8.43;1.80;;;;;;;16.75;73.73;100159.97;5080036;28;20148;-90
2022/10/05 11:35:57;;;;;;;4.28;1.98;;;;;;;16.88;73.38;100151.47;5097689;28;20051;-92
2022/10/05 11:38:55;;;;;;;3.63;1.63;;;;;;;16.99;73.04;100147.69;5082131;28;20035;-86
2022/10/05 11:41:44;;;;;;;4.72;1.80;;;;;;;17.23;72.97;100145.56;5079327;28;20038;-86
2022/10/05 11:44:46;;;;;;;4.38;2.05;;;;;;;17.46;70.98;100135.13;5096058;28;20047;-91
2022/10/05 11:47:30;;;;;;;3.30;1.50;;;;;;;17.34;72.24;100127.19;5079809;28;20064;-89
2022/10/05 11:50:10;;;;;;;3.60;1.50;;;;;;;17.24;71.92;100112.16;5097773;28;20040;-91
2022/10/05 11:52:57;;;;;;;3.88;1.80;;;;;;;17.36;71.58;100122.09;5097933;28;20032;-89
2022/10/05 11:55:56;;;;;;;4.43;1.40;;;;;;;17.45;70.83;100115.09;5078715;28;20408;-88
2022/10/05 11:58:42;;;;;;;5.10;1.83;;;;;;;17.31;71.42;100116.94;5098013;28;20486;-90
2022/10/05 12:01:20;;;;;;;4.13;1.58;;;;;;;17.38;70.76;100117.00;5097360;28;20032;-90
2022/10/05 12:04:01;;;;;;;4.05;1.73;;;;;;;17.62;70.35;100105.38;5079033;28;20483;-89
2022/10/05 12:06:43;;;;;;;3.90;1.70;;;;;;;17.62;70.92;100090.81;5077150;28;20024;-86
2022/10/05 12:09:26;;;;;;;4.05;2.00;;;;;;;17.73;70.30;100092.53;5078795;28;20044;-87
2022/10/05 12:12:08;;;;;;;3.67;1.50;;;;;;;17.88;69.93;100089.84;5097410;28;20055;-86
2022/10/05 12:14:58;;;;;;;3.85;1.40;;;;;;;18.12;69.54;100094.69;5097870;28;20071;-89
2022/10/05 12:17:50;;;;;;;5.75;1.67;;;;;;;17.85;69.05;100080.41;5096742;28;20032;-89
2022/10/05 12:20:29;;;;;;;3.90;1.52;;;;;;;17.90;69.44;100084.75;5078451;28;20036;-89
2022/10/05 12:23:18;;;;;;;3.83;1.45;;;;;;;18.03;68.73;100077.75;5077240;28;20036;-88
2022/10/05 12:25:55;;;;;;;3.63;1.60;;;;;;;18.32;68.46;100073.94;5095564;28;20028;-89
2022/10/05 12:28:35;;;;;;;3.75;1.58;;;;;;;18.43;67.47;100075.94;5095220;28;20216;-87
2022/10/05 12:31:19;;;;;;;4.60;1.80;;;;;;;18.06;68.88;100062.41;5076977;28;20028;-88
2022/10/05 12:34:04;;;;;;;3.30;1.55;;;;;;;17.96;68.90;100070.22;5094747;28;20036;-87
2022/10/05 12:36:39;;;;;;;3.53;1.80;;;;;;;18.22;68.41;100062.88;5095372;28;20032;-88
2022/10/05 12:39:19;;;;;;;4.15;1.67;;;;;;;18.10;68.35;100047.47;5094967;28;20062;-87
2022/10/05 12:41:57;;;;;;;4.78;1.63;;;;;;;18.56;67.50;100042.13;5077881;28;20024;-86
2022/10/05 12:45:09;;;;;;;5.32;2.03;;;;;;;18.37;67.23;100033.41;5078108;28;20206;-86